createdAt,value
2022-11-05T00:04:31.164Z,8.38
2022-11-05T00:10:03.797Z,8.29
2022-11-05T00:15:43.284Z,8.24
2022-11-05T00:21:04.540Z,8.30
2022-11-05T00:26:25.278Z,8.22
2022-11-05T00:31:45.865Z,8.18
2022-11-05T00:37:06.582Z,8.12
2022-11-05T00:42:45.682Z,8.17
2022-11-05T00:48:25.690Z,8.25
2022-11-05T00:53:46.413Z,8.20
2022-11-05T00:59:07.154Z,8.21
2022-11-05T01:04:27.991Z,8.33
2022-11-05T01:09:48.547Z,8.27
2022-11-05T01:15:09.544Z,8.34
2022-11-05T01:20:31.019Z,8.33
2022-11-05T01:25:51.601Z,8.41
2022-11-05T01:31:12.382Z,8.37
2022-11-05T01:36:33.079Z,8.34
2022-11-05T01:41:53.924Z,8.31
2022-11-05T01:47:41.732Z,8.25
2022-11-05T01:53:11.950Z,8.20
2022-11-05T01:58:58.323Z,8.21
2022-11-05T02:04:43.269Z,8.25
2022-11-05T02:10:07.287Z,8.35
2022-11-05T02:15:44.439Z,8.37
2022-11-05T02:21:36.536Z,8.47
2022-11-05T02:27:21.660Z,8.40
2022-11-05T02:32:53.462Z,8.35
2022-11-05T02:38:35.066Z,8.38
2022-11-05T02:44:14.192Z,8.34
2022-11-05T02:49:52.819Z,8.26
2022-11-05T02:55:22.488Z,8.23
2022-11-05T03:00:50.737Z,8.25
2022-11-05T03:06:23.048Z,8.26
2022-11-05T03:11:50.034Z,8.27
2022-11-05T03:17:33.663Z,8.35
2022-11-05T03:23:05.922Z,8.41
2022-11-05T03:28:31.416Z,8.43
2022-11-05T03:33:55.072Z,8.37
2022-11-05T03:39:26.697Z,8.20
2022-11-05T03:44:54.214Z,8.27
2022-11-05T03:50:34.670Z,8.22
2022-11-05T03:56:04.769Z,8.26
2022-11-05T04:01:25.599Z,8.24
2022-11-05T04:07:04.857Z,8.22
2022-11-05T04:12:44.329Z,8.16
2022-11-05T04:18:05.077Z,8.19
2022-11-05T04:23:44.076Z,8.29
2022-11-05T04:29:23.892Z,8.34
2022-11-05T04:34:44.522Z,8.30
2022-11-05T04:40:05.735Z,8.25
2022-11-05T04:45:28.980Z,8.23
2022-11-05T04:50:49.658Z,8.20
2022-11-05T04:56:19.317Z,8.22
2022-11-05T05:01:40.577Z,8.15
2022-11-05T05:07:01.314Z,8.13
2022-11-05T05:12:22.795Z,8.23
2022-11-05T05:17:43.714Z,8.14
2022-11-05T05:23:05.105Z,8.16
2022-11-05T05:28:27.465Z,8.08
2022-11-05T05:33:48.395Z,8.08
2022-11-05T05:39:11.046Z,8.12
2022-11-05T05:44:31.945Z,8.01
2022-11-05T05:49:52.919Z,7.99
2022-11-05T05:55:14.006Z,8.14
2022-11-05T06:00:34.789Z,8.15
2022-11-05T06:06:04.332Z,8.07
2022-11-05T06:11:25.719Z,7.99
2022-11-05T06:16:46.712Z,7.93
2022-11-05T06:22:07.563Z,7.84
2022-11-05T06:27:31.554Z,7.88
2022-11-05T06:32:52.335Z,7.93
2022-11-05T06:38:13.055Z,8.14
2022-11-05T06:43:33.851Z,8.16
2022-11-05T06:48:54.861Z,8.30
2022-11-05T06:54:15.469Z,8.28
2022-11-05T06:59:37.283Z,8.75
2022-11-05T07:04:57.921Z,9.01
2022-11-05T07:10:19.229Z,8.64
2022-11-05T07:15:39.833Z,8.41
2022-11-05T07:21:01.068Z,8.42
2022-11-05T07:26:21.893Z,8.45
2022-11-05T07:31:42.652Z,8.50
2022-11-05T07:37:03.639Z,8.48
2022-11-05T07:42:24.542Z,8.43
2022-11-05T07:48:00.425Z,8.42
2022-11-05T07:53:21.487Z,8.51
2022-11-05T07:58:42.222Z,8.71
2022-11-05T08:04:02.943Z,8.73
2022-11-05T08:09:23.816Z,8.70
2022-11-05T08:14:44.522Z,8.62
2022-11-05T08:20:06.069Z,8.53
2022-11-05T08:25:27.446Z,8.62
2022-11-05T08:30:53.244Z,9.02
2022-11-05T08:36:14.407Z,8.72
2022-11-05T08:41:35.197Z,8.64
2022-11-05T08:46:57.497Z,8.49
2022-11-05T08:52:18.407Z,8.41
2022-11-05T08:57:38.972Z,8.56
2022-11-05T09:03:01.041Z,8.51
2022-11-05T09:08:21.963Z,8.67
2022-11-05T09:13:42.774Z,8.79
2022-11-05T09:19:04.757Z,8.74
2022-11-05T09:24:25.789Z,8.88
2022-11-05T09:29:47.145Z,9.06
2022-11-05T09:35:09.016Z,9.03
2022-11-05T09:40:35.823Z,10.31
2022-11-05T09:46:02.405Z,9.93
2022-11-05T09:51:24.360Z,9.64
2022-11-05T09:56:47.013Z,9.45
2022-11-05T10:02:26.157Z,9.48
2022-11-05T10:08:36.252Z,9.96
2022-11-05T10:14:07.532Z,9.99
2022-11-05T10:19:41.485Z,9.93
2022-11-05T10:25:02.598Z,9.97
2022-11-05T10:30:23.597Z,9.90
2022-11-05T10:35:50.312Z,9.98
2022-11-05T10:41:30.049Z,10.05
2022-11-05T10:47:09.298Z,10.02
2022-11-05T10:52:37.194Z,9.84
2022-11-05T10:58:16.287Z,10.25
2022-11-05T11:03:48.964Z,10.68
2022-11-05T11:09:23.352Z,11.10
2022-11-05T11:15:20.276Z,11.57
2022-11-05T11:20:45.068Z,11.65
2022-11-05T11:26:07.483Z,11.87
2022-11-05T11:31:31.750Z,11.88
2022-11-05T11:36:56.549Z,11.67
2022-11-05T11:42:51.447Z,11.69
2022-11-05T11:48:22.654Z,11.71
2022-11-05T11:53:43.765Z,11.72
2022-11-05T11:59:17.091Z,11.30
2022-11-05T12:05:09.983Z,11.03
2022-11-05T12:10:51.693Z,10.65
2022-11-05T12:16:32.215Z,10.47
2022-11-05T12:21:59.878Z,10.49
2022-11-05T12:27:32.024Z,10.51
2022-11-05T12:33:20.519Z,10.54
2022-11-05T12:39:35.545Z,10.55
2022-11-05T12:45:04.518Z,10.95
2022-11-05T12:50:47.775Z,10.85
2022-11-05T12:56:47.088Z,10.93
2022-11-05T13:02:21.985Z,11.01
2022-11-05T13:08:12.734Z,10.72
2022-11-05T13:13:40.911Z,10.53
2022-11-05T13:19:15.509Z,10.80
2022-11-05T13:25:01.041Z,11.00
2022-11-05T13:30:25.271Z,10.87
2022-11-05T13:36:23.922Z,10.67
2022-11-05T13:42:33.169Z,10.42
2022-11-05T13:48:27.951Z,10.29
2022-11-05T13:54:19.489Z,10.14
2022-11-05T14:00:01.569Z,10.77
2022-11-05T14:05:35.392Z,11.49
2022-11-05T14:11:03.657Z,11.08
2022-11-05T14:16:27.517Z,10.78
2022-11-05T14:21:54.201Z,10.52
2022-11-05T14:27:14.972Z,10.35
2022-11-05T14:32:50.065Z,10.27
2022-11-05T14:38:26.628Z,10.32
2022-11-05T14:43:58.837Z,10.26
2022-11-05T14:49:28.402Z,10.11
2022-11-05T14:54:52.480Z,9.97
2022-11-05T15:00:28.717Z,10.19
2022-11-05T15:06:03.308Z,10.21
2022-11-05T15:11:29.211Z,10.09
2022-11-05T15:16:55.968Z,10.05
2022-11-05T15:22:40.778Z,10.22
2022-11-05T15:28:26.331Z,10.12
2022-11-05T15:33:48.446Z,9.95
2022-11-05T15:39:30.420Z,10.00
2022-11-05T15:44:53.929Z,10.03
2022-11-05T15:50:16.009Z,9.94
2022-11-05T15:55:57.814Z,9.87
2022-11-05T16:01:31.019Z,9.89
2022-11-05T16:06:55.111Z,11.74
2022-11-05T16:12:19.444Z,11.93
2022-11-05T16:17:40.353Z,11.30
2022-11-05T16:23:04.045Z,10.70
2022-11-05T16:28:27.109Z,10.35
2022-11-05T16:33:48.524Z,10.10
2022-11-05T16:39:09.547Z,9.81
2022-11-05T16:44:30.310Z,9.68
2022-11-05T16:49:51.137Z,9.54
2022-11-05T16:55:13.365Z,9.36
2022-11-05T17:00:34.454Z,9.58
2022-11-05T17:05:55.055Z,11.56
2022-11-05T17:11:20.867Z,11.50
2022-11-05T17:16:41.667Z,10.81
2022-11-05T17:22:02.461Z,10.03
2022-11-05T17:27:23.200Z,9.65
2022-11-05T17:32:43.973Z,9.28
2022-11-05T17:38:05.020Z,8.97
2022-11-05T17:43:26.229Z,8.98
2022-11-05T17:48:47.045Z,8.83
2022-11-05T17:54:07.700Z,8.77
2022-11-05T17:59:28.454Z,8.72
2022-11-05T18:04:49.135Z,8.60
2022-11-05T18:10:10.367Z,8.67
2022-11-05T18:15:31.344Z,8.64
2022-11-05T18:20:52.215Z,8.54
2022-11-05T18:26:15.371Z,8.17
2022-11-05T18:31:35.912Z,8.14
2022-11-05T18:36:56.858Z,8.33
2022-11-05T18:42:18.050Z,8.37
2022-11-05T18:47:38.997Z,8.23
2022-11-05T18:52:59.654Z,8.19
2022-11-05T18:58:20.485Z,8.12
2022-11-05T19:03:41.757Z,8.15
2022-11-05T19:09:03.809Z,8.07
2022-11-05T19:14:24.772Z,8.12
2022-11-05T19:19:45.456Z,8.13
2022-11-05T19:25:07.755Z,8.02
2022-11-05T19:30:28.534Z,7.97
2022-11-05T19:35:49.244Z,7.84
2022-11-05T19:41:14.663Z,7.84
2022-11-05T19:46:35.448Z,7.91
2022-11-05T19:51:57.502Z,7.82
2022-11-05T19:57:18.462Z,7.67
2022-11-05T20:02:43.683Z,7.58
2022-11-05T20:08:04.994Z,7.51
2022-11-05T20:13:26.127Z,7.51
2022-11-05T20:18:47.079Z,7.52
2022-11-05T20:24:09.874Z,7.58
2022-11-05T20:29:35.738Z,7.65
2022-11-05T20:34:56.762Z,7.52
2022-11-05T20:40:17.630Z,7.24
2022-11-05T20:45:38.677Z,7.15
2022-11-05T20:50:59.952Z,7.25
2022-11-05T20:56:23.280Z,7.26
2022-11-05T21:01:44.183Z,7.19
2022-11-05T21:07:05.235Z,7.15
2022-11-05T21:12:26.021Z,7.14
2022-11-05T21:17:46.989Z,7.09
2022-11-05T21:23:07.795Z,7.04
2022-11-05T21:28:28.502Z,6.97
2022-11-05T21:33:54.858Z,6.74
2022-11-05T21:39:16.439Z,6.73
2022-11-05T21:44:37.106Z,6.89
2022-11-05T21:49:58.000Z,6.85
2022-11-05T21:55:37.213Z,6.78
2022-11-05T22:00:58.587Z,6.71
2022-11-05T22:06:19.339Z,6.73
2022-11-05T22:11:40.093Z,6.86
2022-11-05T22:17:03.026Z,6.72
2022-11-05T22:22:23.660Z,6.67
2022-11-05T22:27:44.412Z,6.59
2022-11-05T22:33:05.214Z,6.37
2022-11-05T22:38:25.849Z,6.21
2022-11-05T22:43:46.642Z,6.28
2022-11-05T22:49:07.481Z,6.16
2022-11-05T22:54:28.654Z,5.99
2022-11-05T22:59:49.319Z,5.91
2022-11-05T23:05:10.571Z,5.93
2022-11-05T23:10:50.101Z,5.88
2022-11-05T23:16:29.736Z,5.82
2022-11-05T23:22:09.058Z,5.86
2022-11-05T23:27:31.489Z,5.80
2022-11-05T23:32:53.467Z,5.71
2022-11-05T23:38:34.072Z,5.76
2022-11-05T23:44:13.625Z,5.74
2022-11-05T23:49:34.172Z,5.54
2022-11-05T23:54:55.200Z,5.48
